LPPD/PDL METAR and TAF weather

Enter ICAO airport designator
Station Type Date Time Source
LPPD METAR 2022/12/04 11:00 UTC NOAA

LPPD 041100Z 05019G29KT 9999 FEW022 16/11 Q1004


Station Type Date Time Source
LPPD Decoded METAR 2022/12/04 11:00 UTC NOAA

Ponta Delgada / Nordela Acores , Portugal (LPPD) 37-44N 025-42W 72M
Dec 04, 2022 - 06:00 AM EST / 2022.12.04 1100 UTC
Wind: from the NE (050 degrees) at 22 MPH (19 KT) gusting to 33 MPH (29 KT):0
Visibility: greater than 7 mile(s):0
Sky conditions: mostly clear
Temperature: 60 F (16 C)
Dew Point: 51 F (11 C)
Relative Humidity: 72%
Pressure (altimeter): 29.65 in. Hg (1004 hPa)
ob: LPPD 041100Z 05019G29KT 9999 FEW022 16/11 Q1004
cycle: 11

Station Type Date Time Source
LPPD TAF 2022/12/04 12:18 UTC NOAA

TAF LPPD 041100Z 0412/0512 03017KT 9999 SCT025
TEMPO 0412/0418 04020G32KT 5000 SHRA BKN015 FEW020CB
BECMG 0418/0421 05010KT
BECMG 0500/0503 VRB05KT
BECMG 0510/0512 17010KT

Example: see airport list